Time;durP1;ratioP1;P1;durP2;ratioP2;P2;SDS_P1;SDS_P2;PMS_P1;PMS_P2;Temp;Humidity;BMP_temperature;BMP_pressure;BME280_temperature;BME280_humidity;BME280_pressure;Samples;Min_cycle;Max_cycle;Signal;HPM_P1;HPM_P2
2022/05/07 00:01:55;;;;;;;;;4.33;4.33;;;;;19.31;43.98;102175.84;5081141;27;45369;-82
2022/05/07 00:04:20;;;;;;;;;4.33;4.00;;;;;19.28;44.13;102170.59;5084379;27;45447;-81
2022/05/07 00:06:45;;;;;;;;;5.00;5.00;;;;;19.03;45.01;102122.50;5099195;27;45357;-82
2022/05/07 00:09:11;;;;;;;;;5.33;5.33;;;;;19.17;44.44;102160.41;5091680;27;45349;-81
2022/05/07 00:11:36;;;;;;;;;7.00;5.33;;;;;19.11;44.66;102145.41;5084657;27;45381;-82
2022/05/07 00:14:01;;;;;;;;;7.00;5.67;;;;;18.86;45.05;102112.66;5079486;27;45441;-81
2022/05/07 00:19:11;;;;;;;;;7.00;6.00;;;;;19.14;44.87;102164.16;5093997;27;45565;-81
2022/05/07 00:21:36;;;;;;;;;3.67;3.67;;;;;19.11;44.79;102158.94;5084336;27;45340;-81
2022/05/07 00:24:02;;;;;;;;;6.00;6.00;;;;;18.69;45.06;102097.38;5080574;27;45419;-81
2022/05/07 00:26:28;;;;;;;;;8.33;5.00;;;;;18.77;45.58;102114.03;5103810;27;45407;-81
2022/05/07 00:28:54;;;;;;;;;6.00;6.00;;;;;18.81;45.08;102121.00;5080001;27;45531;-81
2022/05/07 00:31:20;;;;;;;;;5.67;5.33;;;;;18.76;45.80;102126.69;5099128;27;45337;-82
2022/05/07 00:33:45;;;;;;;;;6.00;5.00;;;;;18.91;45.26;102156.47;5099148;27;45359;-82
2022/05/07 00:36:10;;;;;;;;;5.00;5.00;;;;;18.44;45.45;102085.22;5084304;27;45363;-82
2022/05/07 00:38:36;;;;;;;;;8.00;7.33;;;;;18.68;45.67;102128.00;5098666;27;45450;-81
2022/05/07 00:41:01;;;;;;;;;8.67;6.00;;;;;18.70;45.74;102120.69;5093413;27;45380;-82
2022/05/07 00:43:37;;;;;;;;;7.00;6.00;;;;;18.75;45.65;102149.22;5081744;27;45374;-82
2022/05/07 00:46:04;;;;;;;;;6.33;5.00;;;;;18.81;45.56;102150.72;5077358;27;47365;-82
2022/05/07 00:48:30;;;;;;;;;6.67;6.67;;;;;18.49;45.88;102103.88;5099189;27;45339;-81
2022/05/07 00:53:40;;;;;;;;;7.33;7.00;;;;;18.44;45.79;102103.25;5085779;27;45307;-82
2022/05/07 00:56:06;;;;;;;;;8.67;6.00;;;;;18.68;46.04;102149.63;5094477;27;45578;-82
2022/05/07 00:58:34;;;;;;;;;7.00;7.00;;;;;18.65;46.08;102145.25;5086537;27;45535;-81
2022/05/07 01:00:59;;;;;;;;;9.00;6.00;;;;;17.91;45.95;102024.25;5086638;27;45321;-82
2022/05/07 01:03:25;;;;;;;;;6.33;5.33;;;;;18.60;46.26;102144.66;5083675;27;45319;-82
2022/05/07 01:05:50;;;;;;;;;6.67;6.67;;;;;18.56;46.03;102135.84;5064511;27;48367;-81
2022/05/07 01:08:17;;;;;;;;;8.67;8.00;;;;;18.30;46.26;102104.00;5087558;27;45496;-82
2022/05/07 01:10:43;;;;;;;;;10.33;7.33;;;;;18.28;46.13;102119.41;5084252;27;45273;-81
2022/05/07 01:13:09;;;;;;;;;6.33;6.33;;;;;18.27;46.75;102110.44;5081395;27;45615;-81
2022/05/07 01:15:48;;;;;;;;;8.33;7.00;;;;;18.40;46.77;102139.47;5082462;27;45492;-81
2022/05/07 01:18:15;;;;;;;;;8.67;5.67;;;;;18.07;46.84;102087.22;5088628;27;45469;-81
2022/05/07 01:20:41;;;;;;;;;13.00;10.00;;;;;18.02;46.70;102083.03;5087784;27;45374;-81
2022/05/07 01:23:08;;;;;;;;;6.33;6.33;;;;;18.07;47.18;102089.91;5090298;27;45517;-81
2022/05/07 01:25:34;;;;;;;;;9.00;8.00;;;;;18.21;47.25;102118.00;5069001;27;47444;-82
2022/05/07 01:27:59;;;;;;;;;10.00;9.67;;;;;18.12;47.18;102108.56;5084863;27;45488;-81
2022/05/07 01:30:25;;;;;;;;;9.67;7.33;;;;;18.23;47.41;102130.47;5088042;27;45841;-82
2022/05/07 01:32:50;;;;;;;;;10.33;9.00;;;;;18.01;47.11;102095.66;5086663;27;45418;-81
2022/05/07 01:35:16;;;;;;;;;7.67;6.00;;;;;18.18;47.21;102128.97;5086524;27;45819;-81
2022/05/07 01:37:42;;;;;;;;;7.00;6.00;;;;;18.06;47.65;102115.16;5088885;27;45376;-81
2022/05/07 01:40:08;;;;;;;;;7.67;5.67;;;;;18.00;47.38;102115.50;5086419;27;45459;-82
2022/05/07 01:42:33;;;;;;;;;7.00;7.00;;;;;18.11;47.37;102131.13;5094881;27;45440;-82
2022/05/07 01:44:59;;;;;;;;;7.33;7.33;;;;;18.11;47.58;102129.28;5088910;27;46327;-82
2022/05/07 01:50:09;;;;;;;;;9.00;7.00;;;;;17.65;47.87;102053.50;5081521;27;45587;-82
2022/05/07 01:52:34;;;;;;;;;9.00;7.00;;;;;17.89;47.43;102090.94;5079995;27;45586;-81
2022/05/07 01:54:59;;;;;;;;;9.00;7.67;;;;;17.76;47.79;102074.47;5092216;27;45964;-82
2022/05/07 01:57:25;;;;;;;;;11.00;7.67;;;;;18.05;48.12;102123.34;5077704;27;45304;-81
2022/05/07 01:59:50;;;;;;;;;10.00;8.33;;;;;18.03;47.75;102125.28;5082172;27;45432;-81
2022/05/07 02:02:15;;;;;;;;;7.00;6.00;;;;;18.03;48.26;102119.88;5086633;27;45346;-81
2022/05/07 02:04:41;;;;;;;;;9.00;9.00;;;;;18.01;47.85;102122.66;5086540;27;46510;-82
2022/05/07 02:07:07;;;;;;;;;9.33;9.33;;;;;18.00;48.35;102130.81;5068040;27;45618;-82
2022/05/07 02:09:33;;;;;;;;;7.00;4.00;;;;;17.82;48.16;102103.88;5096610;27;45499;-82
2022/05/07 02:11:58;;;;;;;;;10.33;9.67;;;;;17.70;48.57;102085.59;5084678;27;45354;-82
2022/05/07 02:14:24;;;;;;;;;9.67;9.67;;;;;17.43;48.21;102040.22;5093568;27;45423;-82
2022/05/07 02:16:49;;;;;;;;;11.00;8.33;;;;;17.38;48.33;102038.75;5062125;27;45562;-81
2022/05/07 02:19:14;;;;;;;;;8.67;8.67;;;;;17.89;48.65;102126.88;5083724;27;45435;-82
2022/05/07 02:21:40;;;;;;;;;11.00;9.67;;;;;17.87;48.25;102125.19;5088236;27;45628;-82
2022/05/07 02:24:05;;;;;;;;;5.67;5.67;;;;;17.85;48.57;102125.28;5091002;27;46329;-82
2022/05/07 02:26:31;;;;;;;;;7.67;6.67;;;;;17.85;48.24;102133.38;5087520;27;45471;-82
2022/05/07 02:28:56;;;;;;;;;10.33;7.33;;;;;17.83;48.57;102129.88;5076950;27;45346;-82
2022/05/07 02:31:21;;;;;;;;;13.00;11.00;;;;;16.92;48.89;101979.97;5065620;27;45391;-81
2022/05/07 02:33:47;;;;;;;;;8.67;7.00;;;;;17.78;48.76;102125.66;5067269;28;48420;-81
2022/05/07 02:36:13;;;;;;;;;9.67;6.00;;;;;17.54;48.62;102098.13;5077542;27;45511;-82
2022/05/07 02:38:39;;;;;;;;;12.33;8.00;;;;;17.49;48.99;102088.44;5068075;27;45628;-82
2022/05/07 02:43:48;;;;;;;;;7.00;7.00;;;;;17.47;48.85;102084.97;5086710;27;45389;-81
2022/05/07 02:46:14;;;;;;;;;11.67;9.33;;;;;17.22;49.00;102055.69;5083059;27;45360;-82
2022/05/07 02:48:44;;;;;;;;;12.00;8.00;;;;;17.56;49.42;102123.16;5093073;27;45406;-81
2022/05/07 02:51:09;;;;;;;;;10.00;9.33;;;;;17.28;49.52;102089.53;5077568;27;45366;-82
2022/05/07 02:53:35;;;;;;;;;11.67;9.00;;;;;17.48;49.66;102129.81;5065797;28;47186;-81
2022/05/07 02:56:00;;;;;;;;;9.67;6.33;;;;;17.50;49.30;102132.44;5076661;27;48833;-82
2022/05/07 02:58:25;;;;;;;;;7.00;7.00;;;;;17.16;49.93;102071.28;5094678;27;45657;-81
2022/05/07 03:00:51;;;;;;;;;8.67;8.33;;;;;17.40;49.91;102110.47;5079814;27;45490;-82
2022/05/07 03:03:16;;;;;;;;;10.67;8.00;;;;;17.44;49.90;102116.56;5083376;27;46122;-81
2022/05/07 03:05:42;;;;;;;;;10.67;10.00;;;;;17.23;50.02;102083.50;5090019;27;45492;-82
2022/05/07 03:08:07;;;;;;;;;9.67;9.67;;;;;17.33;50.18;102102.78;5096749;27;45416;-81
2022/05/07 03:10:32;;;;;;;;;9.67;9.67;;;;;17.42;50.18;102121.16;5062937;28;45497;-82
2022/05/07 03:12:57;;;;;;;;;7.67;6.00;;;;;17.43;50.03;102122.94;5080056;27;46826;-82
2022/05/07 03:15:24;;;;;;;;;10.33;9.67;;;;;17.44;50.29;102132.75;5082776;27;58410;-82
2022/05/07 03:17:49;;;;;;;;;10.00;9.00;;;;;17.43;50.28;102117.53;5080111;27;45433;-82
2022/05/07 03:20:17;;;;;;;;;8.00;6.67;;;;;17.32;50.01;102114.50;5093360;27;45337;-82
2022/05/07 03:22:43;;;;;;;;;11.67;8.33;;;;;17.40;50.20;102128.47;5100733;27;46036;-82
2022/05/07 03:25:09;;;;;;;;;9.33;8.33;;;;;16.93;50.40;102051.78;5099055;27;45411;-82
2022/05/07 03:27:34;;;;;;;;;12.00;9.00;;;;;17.20;50.57;102097.13;5093889;27;45426;-82
2022/05/07 03:30:00;;;;;;;;;10.33;10.00;;;;;17.16;50.61;102088.34;5072200;27;45644;-82
2022/05/07 03:32:25;;;;;;;;;8.00;5.00;;;;;16.88;50.45;102040.34;5100508;27;46218;-82
2022/05/07 03:34:50;;;;;;;;;10.33;9.00;;;;;17.32;50.34;102120.75;5081222;27;45447;-82
2022/05/07 03:37:16;;;;;;;;;11.33;10.00;;;;;17.10;50.97;102080.56;5097620;27;46937;-82
2022/05/07 03:39:41;;;;;;;;;9.00;7.33;;;;;17.30;50.80;102123.56;5081438;27;45394;-82
2022/05/07 03:42:07;;;;;;;;;9.33;9.33;;;;;17.32;50.64;102119.91;5079412;27;45629;-81
2022/05/07 03:44:32;;;;;;;;;13.33;12.00;;;;;16.80;50.58;102029.06;5080061;27;45393;-82
2022/05/07 03:46:58;;;;;;;;;12.00;11.00;;;;;17.29;51.09;102110.13;5080822;27;45365;-82
2022/05/07 03:49:23;;;;;;;;;10.00;10.00;;;;;17.29;50.97;102107.44;5089141;27;45397;-82
2022/05/07 03:54:32;;;;;;;;;9.33;9.33;;;;;17.26;51.32;102110.31;5081557;27;45503;-81
2022/05/07 03:56:58;;;;;;;;;8.67;7.67;;;;;17.24;51.32;102104.97;5084336;27;45448;-81
2022/05/07 03:59:23;;;;;;;;;11.00;10.33;;;;;17.23;51.52;102108.63;5091744;27;45539;-82
2022/05/07 04:01:49;;;;;;;;;12.00;7.67;;;;;17.22;51.59;102112.25;5089491;27;46192;-82
2022/05/07 04:04:14;;;;;;;;;11.33;9.67;;;;;16.98;51.92;102082.03;5086415;27;46627;-82
2022/05/07 04:06:40;;;;;;;;;9.33;9.33;;;;;17.20;51.76;102110.59;5066542;27;45503;-82
2022/05/07 04:09:05;;;;;;;;;9.67;8.33;;;;;17.18;51.87;102109.78;5096010;27;45480;-82
2022/05/07 04:11:30;;;;;;;;;11.00;11.00;;;;;17.06;52.03;102093.28;5085860;27;51959;-82
2022/05/07 04:13:56;;;;;;;;;11.00;9.00;;;;;17.15;52.02;102107.25;5094831;27;45369;-82
2022/05/07 04:16:21;;;;;;;;;9.67;9.33;;;;;17.13;52.08;102114.53;5096290;27;45515;-81
2022/05/07 04:18:46;;;;;;;;;11.67;8.33;;;;;17.13;52.39;102111.84;5080364;28;45291;-82
2022/05/07 04:21:12;;;;;;;;;9.33;9.33;;;;;16.96;52.22;102093.84;5094614;27;45401;-82
2022/05/07 04:23:37;;;;;;;;;7.33;6.00;;;;;17.06;52.28;102113.97;5079646;27;45489;-82
2022/05/07 04:26:03;;;;;;;;;13.00;10.00;;;;;16.92;52.57;102089.53;5079192;27;45432;-82
2022/05/07 04:28:28;;;;;;;;;15.00;13.33;;;;;16.49;52.72;102017.06;5080113;27;45189;-82
2022/05/07 04:30:53;;;;;;;;;12.00;8.67;;;;;17.01;52.94;102114.19;5079160;27;46291;-82
2022/05/07 04:33:19;;;;;;;;;10.00;10.00;;;;;16.75;52.66;102068.78;5085716;27;45534;-81
2022/05/07 04:35:44;;;;;;;;;13.00;9.33;;;;;16.75;52.75;102071.47;5089952;27;45470;-82
2022/05/07 04:38:10;;;;;;;;;17.33;12.00;;;;;16.94;53.06;102106.50;5085201;27;45387;-82
2022/05/07 04:40:35;;;;;;;;;10.00;8.33;;;;;16.60;53.06;102056.91;5078649;27;45513;-82
2022/05/07 04:43:00;;;;;;;;;10.00;9.33;;;;;16.95;52.96;102119.00;5094307;27;45779;-82
2022/05/07 04:45:27;;;;;;;;;11.67;10.67;;;;;16.61;52.91;102058.69;5082427;27;45428;-82
2022/05/07 04:47:53;;;;;;;;;10.33;9.00;;;;;16.92;53.09;102109.25;5092866;27;45634;-82
2022/05/07 04:50:18;;;;;;;;;10.67;9.00;;;;;16.86;52.92;102109.56;5087084;27;45521;-82
2022/05/07 04:52:44;;;;;;;;;11.33;10.67;;;;;16.91;53.19;102102.13;5099416;27;45408;-82
2022/05/07 04:55:10;;;;;;;;;11.00;9.67;;;;;16.65;53.28;102055.78;5090545;27;45394;-82
2022/05/07 04:57:36;;;;;;;;;10.67;9.67;;;;;16.51;53.34;102025.97;5092311;27;45519;-82
2022/05/07 05:00:03;;;;;;;;;10.33;7.33;;;;;16.93;53.34;102096.66;5083764;27;46457;-82
2022/05/07 05:02:29;;;;;;;;;9.67;9.67;;;;;16.91;53.23;102101.28;5078630;27;45488;-82
2022/05/07 05:04:54;;;;;;;;;8.67;8.67;;;;;16.91;53.29;102099.44;5097228;27;45962;-82
2022/05/07 05:07:19;;;;;;;;;10.67;9.00;;;;;16.60;53.41;102048.84;5099418;27;45673;-82
2022/05/07 05:09:45;;;;;;;;;10.33;7.67;;;;;16.58;53.42;102054.31;5098205;27;46436;-82
2022/05/07 05:12:10;;;;;;;;;15.00;10.33;;;;;16.57;53.38;102057.06;5094038;27;45514;-82
2022/05/07 05:17:19;;;;;;;;;12.67;8.67;;;;;16.74;53.78;102081.38;5095815;27;45500;-81
2022/05/07 05:19:44;;;;;;;;;12.00;10.67;;;;;16.89;53.70;102095.94;5079708;27;45491;-82
2022/05/07 05:22:10;;;;;;;;;11.67;9.00;;;;;16.82;54.07;102081.91;5090595;27;50176;-82
2022/05/07 05:24:35;;;;;;;;;12.00;12.00;;;;;16.70;54.02;102062.75;5080072;27;45357;-81
2022/05/07 05:27:01;;;;;;;;;12.00;11.33;;;;;16.65;53.67;102057.59;5091520;27;45769;-82
2022/05/07 05:29:26;;;;;;;;;9.67;8.33;;;;;16.68;53.90;102057.44;5081266;27;45466;-82
2022/05/07 05:31:52;;;;;;;;;16.67;11.00;;;;;16.73;54.26;102079.63;5083289;27;45394;-82
2022/05/07 05:34:17;;;;;;;;;12.67;11.33;;;;;16.90;54.18;102091.44;5092080;27;45388;-82
2022/05/07 05:36:42;;;;;;;;;12.00;11.33;;;;;16.96;54.15;102113.56;5095938;27;45360;-81
2022/05/07 05:39:08;;;;;;;;;5.00;5.00;;;;;16.72;54.14;102066.25;5059847;28;54049;-82
2022/05/07 05:41:35;;;;;;;;;14.00;11.00;;;;;16.96;54.23;102108.16;5079440;27;45569;-82
2022/05/07 05:44:01;;;;;;;;;14.00;13.33;;;;;17.01;54.39;102110.63;5064857;27;45584;-82
2022/05/07 05:46:27;;;;;;;;;10.67;7.33;;;;;16.93;54.53;102096.66;5095157;27;45666;-82
2022/05/07 05:48:53;;;;;;;;;11.33;9.00;;;;;17.05;54.04;102114.94;5096111;27;46089;-82
2022/05/07 05:51:18;;;;;;;;;22.33;19.00;;;;;17.04;54.23;102115.88;5093555;27;45507;-82
2022/05/07 05:53:44;;;;;;;;;14.00;11.00;;;;;16.92;54.11;102098.47;5087087;27;45451;-81
2022/05/07 05:56:09;;;;;;;;;16.67;11.33;;;;;17.12;54.46;102115.50;5078766;28;45439;-81
2022/05/07 05:58:35;;;;;;;;;16.00;15.00;;;;;16.79;54.16;102060.53;5078008;28;45417;-82
2022/05/07 06:01:02;;;;;;;;;17.00;14.00;;;;;17.15;54.13;102112.66;5081222;27;45597;-82
2022/05/07 06:03:28;;;;;;;;;16.67;12.00;;;;;17.17;53.91;102116.16;5089739;27;45441;-82
2022/05/07 06:05:53;;;;;;;;;11.00;11.00;;;;;16.94;54.48;102066.97;5091210;27;45682;-82
2022/05/07 06:08:19;;;;;;;;;14.67;13.00;;;;;17.26;54.32;102110.31;5089062;27;46714;-82
2022/05/07 06:10:44;;;;;;;;;15.00;12.00;;;;;17.28;54.05;102103.88;5097808;27;45399;-81
2022/05/07 06:13:10;;;;;;;;;12.67;11.33;;;;;17.18;54.16;102090.94;5082940;27;45398;-81
2022/05/07 06:15:38;;;;;;;;;14.33;13.33;;;;;17.31;53.84;102127.13;5084698;27;45287;-82
2022/05/07 06:18:03;;;;;;;;;14.33;13.33;;;;;17.21;53.96;102098.91;5090256;27;45275;-82
2022/05/07 06:20:28;;;;;;;;;10.67;8.67;;;;;17.35;53.83;102127.81;5081984;27;45457;-82
2022/05/07 06:22:58;;;;;;;;;11.67;10.33;;;;;17.24;54.00;102104.13;5091741;27;45314;-82
2022/05/07 06:28:08;;;;;;;;;13.33;10.33;;;;;17.46;53.95;102141.63;5077821;28;45879;-82
2022/05/07 06:30:35;;;;;;;;;9.33;6.67;;;;;17.49;53.94;102149.59;5077969;28;45368;-82
2022/05/07 06:33:00;;;;;;;;;11.67;11.67;;;;;17.34;53.81;102128.78;5087566;27;45420;-82
2022/05/07 06:35:26;;;;;;;;;14.33;11.00;;;;;17.19;53.84;102112.44;5077721;27;45241;-82
2022/05/07 06:37:51;;;;;;;;;16.00;12.00;;;;;17.12;53.69;102102.03;5077023;28;45880;-82
2022/05/07 06:40:17;;;;;;;;;13.00;11.00;;;;;17.53;53.75;102164.63;5077774;27;45473;-82
2022/05/07 06:42:44;;;;;;;;;12.33;11.00;;;;;17.49;53.99;102144.19;5093958;27;45414;-82
2022/05/07 06:45:11;;;;;;;;;13.00;12.00;;;;;17.52;53.40;102152.13;5094181;27;45395;-82
2022/05/07 06:47:36;;;;;;;;;18.33;13.67;;;;;17.34;53.80;102124.25;5085011;27;45412;-82
2022/05/07 06:50:02;;;;;;;;;16.00;10.00;;;;;17.65;53.47;102163.13;5083725;27;45479;-82
2022/05/07 06:52:28;;;;;;;;;13.67;12.33;;;;;17.52;53.01;102135.94;5082555;27;45446;-82
2022/05/07 06:54:54;;;;;;;;;14.33;11.67;;;;;16.83;53.43;102013.66;5078377;27;45425;-82
2022/05/07 06:57:19;;;;;;;;;16.67;11.00;;;;;17.72;53.46;102161.88;5090786;27;46132;-82
2022/05/07 06:59:44;;;;;;;;;11.67;10.33;;;;;17.67;53.85;102139.66;5097755;27;45384;-82
2022/05/07 07:02:10;;;;;;;;;13.33;13.33;;;;;17.50;53.62;102103.66;5094433;27;45494;-82
2022/05/07 07:04:35;;;;;;;;;10.33;10.33;;;;;17.87;53.55;102144.09;5071094;28;45448;-82
2022/05/07 07:07:00;;;;;;;;;11.00;9.00;;;;;17.72;53.38;102107.94;5087135;27;45489;-82
2022/05/07 07:09:26;;;;;;;;;19.33;12.00;;;;;17.95;52.96;102138.28;5079007;27;45641;-82
2022/05/07 07:11:51;;;;;;;;;13.33;11.67;;;;;17.91;53.33;102116.88;5095209;27;45367;-82
2022/05/07 07:14:16;;;;;;;;;13.00;9.33;;;;;18.18;52.79;102150.56;5085658;27;45421;-82
2022/05/07 07:16:42;;;;;;;;;11.00;9.67;;;;;18.20;53.09;102141.44;5075987;27;46413;-82
2022/05/07 07:19:09;;;;;;;;;14.67;11.00;;;;;18.32;52.74;102148.00;5083292;27;45169;-82
2022/05/07 07:21:34;;;;;;;;;14.33;12.00;;;;;18.41;52.62;102152.03;5083487;27;45384;-82
2022/05/07 07:24:00;;;;;;;;;11.33;10.00;;;;;18.48;52.82;102150.75;5077076;27;45658;-82
2022/05/07 07:26:25;;;;;;;;;9.00;8.33;;;;;18.42;52.41;102126.75;5090277;27;45532;-82
2022/05/07 07:28:50;;;;;;;;;8.33;6.00;;;;;18.49;52.13;102126.34;5091066;27;45550;-82
2022/05/07 07:31:16;;;;;;;;;14.33;12.33;;;;;18.61;52.57;102142.81;5088750;27;45439;-82
2022/05/07 07:33:42;;;;;;;;;11.67;9.33;;;;;18.64;52.38;102150.78;5085548;27;45589;-83
2022/05/07 07:36:09;;;;;;;;;11.33;11.33;;;;;18.64;52.29;102146.25;5086717;27;45406;-83
2022/05/07 07:38:37;;;;;;;;;12.00;11.00;;;;;18.22;52.09;102074.75;5092939;27;45380;-82
2022/05/07 07:41:02;;;;;;;;;11.33;10.00;;;;;18.69;52.32;102149.56;5093321;27;45410;-83
2022/05/07 07:43:37;;;;;;;;;12.33;10.33;;;;;18.30;52.52;102074.31;5095583;27;45484;-84
2022/05/07 07:48:46;;;;;;;;;14.00;12.00;;;;;18.42;51.85;102079.03;5080018;27;45487;-83
2022/05/07 07:51:12;;;;;;;;;13.33;13.00;;;;;18.39;52.21;102056.75;5084880;27;45760;-86
2022/05/07 07:53:49;;;;;;;;;13.00;10.33;;;;;18.86;51.64;102128.84;5084296;27;45246;-89
2022/05/07 07:56:18;;;;;;;;;17.00;13.67;;;;;18.76;52.34;102102.38;5092521;27;45738;-94
2022/05/07 07:59:01;;;;;;;;;12.00;9.00;;;;;18.52;51.53;102036.22;5076357;27;45416;-85
2022/05/07 08:01:27;;;;;;;;;16.00;11.67;;;;;17.67;51.25;101892.47;5090687;27;45456;-85
2022/05/07 08:03:52;;;;;;;;;12.00;9.33;;;;;19.24;51.25;102142.88;5094415;27;45488;-82
2022/05/07 08:06:25;;;;;;;;;11.00;11.00;;;;;19.11;51.69;102113.00;5089208;27;63105;-80
2022/05/07 08:11:41;;;;;;;;;13.00;11.00;;;;;19.49;51.12;102120.69;5086617;27;45640;-78
2022/05/07 08:14:08;;;;;;;;;8.67;7.67;;;;;19.67;50.97;102137.66;5090299;27;45427;-80
2022/05/07 08:16:42;;;;;;;;;16.00;13.67;;;;;19.64;50.30;102121.59;5087933;27;45743;-82
2022/05/07 08:19:07;;;;;;;;;12.33;12.00;;;;;19.87;50.26;102128.34;5090324;27;45532;-78
2022/05/07 08:21:33;;;;;;;;;8.67;7.33;;;;;19.99;49.61;102141.16;5089841;27;45642;-83
2022/05/07 08:23:59;;;;;;;;;10.67;9.00;;;;;19.73;49.73;102066.09;5091171;27;45411;-84
2022/05/07 08:26:28;;;;;;;;;10.33;10.33;;;;;19.39;49.83;101985.16;5096175;27;45452;-81
2022/05/07 08:28:54;;;;;;;;;18.67;15.67;;;;;19.47;49.17;101975.72;5081394;27;45448;-87
2022/05/07 08:31:23;;;;;;;;;11.33;11.33;;;;;20.58;49.14;102133.00;5078234;27;45434;-86
2022/05/07 08:33:48;;;;;;;;;13.00;7.00;;;;;19.87;48.55;101987.66;5075821;27;45548;-86
2022/05/07 08:36:14;;;;;;;;;11.67;9.00;;;;;21.03;48.10;102127.41;5084703;27;45973;-83
2022/05/07 08:39:04;;;;;;;;;16.33;12.33;;;;;21.03;47.74;102089.44;5098818;27;45745;-78
2022/05/07 08:42:15;;;;;;;;;14.00;11.33;;;;;21.50;47.06;102136.94;5071247;28;45531;-79
2022/05/07 08:45:16;;;;;;;;;11.67;9.33;;;;;21.64;47.16;102125.16;5085394;27;45547;-79
2022/05/07 08:47:53;;;;;;;;;10.00;10.00;;;;;21.64;45.87;102073.59;5080993;27;45954;-80
2022/05/07 08:50:20;;;;;;;;;13.67;11.00;;;;;21.95;45.33;102044.31;5092739;27;45456;-81
2022/05/07 08:52:53;;;;;;;;;10.67;10.00;;;;;22.67;44.71;102124.22;5089904;27;45601;-81
2022/05/07 08:55:20;;;;;;;;;7.00;7.00;;;;;22.86;43.84;102121.00;5085860;27;45519;-80
2022/05/07 08:57:48;;;;;;;;;6.67;6.67;;;;;23.10;43.71;102131.94;5082714;27;45524;-81
2022/05/07 09:00:30;;;;;;;;;12.33;8.33;;;;;22.90;43.53;102080.88;5065275;27;45500;-81
2022/05/07 09:03:01;;;;;;;;;7.33;7.33;;;;;23.21;42.42;102133.00;5076623;27;45519;-80
2022/05/07 09:05:39;;;;;;;;;8.67;7.00;;;;;23.28;43.52;102124.25;5084684;27;45616;-80
2022/05/07 09:08:08;;;;;;;;;9.33;7.33;;;;;23.46;42.11;102069.41;5091422;27;45365;-78
2022/05/07 09:10:41;;;;;;;;;9.33;7.67;;;;;24.07;42.65;102078.25;5088718;27;45538;-79
2022/05/07 09:13:21;;;;;;;;;8.00;7.00;;;;;24.80;41.75;102120.50;5069103;27;45459;-78
2022/05/07 09:16:09;;;;;;;;;5.00;5.00;;;;;25.42;40.67;102112.66;5075596;27;45604;-85
2022/05/07 09:18:35;;;;;;;;;6.00;6.00;;;;;25.36;40.03;102031.31;5067051;28;47601;-84
2022/05/07 09:21:20;;;;;;;;;5.33;5.00;;;;;26.17;39.99;102106.16;5085648;27;45826;-82
2022/05/07 09:24:26;;;;;;;;;7.67;6.67;;;;;26.67;38.79;102108.16;5079960;27;46115;-81
2022/05/07 09:26:57;;;;;;;;;9.00;7.00;;;;;27.11;38.42;102073.97;5100517;22;45659;-79
2022/05/07 09:29:38;;;;;;;;;7.33;5.67;;;;;27.86;37.83;102073.34;5089066;22;47938;-79
2022/05/07 09:32:41;;;;;;;;;11.00;7.33;;;;;28.63;36.58;102094.16;5084875;27;45429;-81
2022/05/07 09:41:43;;;;;;;;;26.33;16.00;;;;;30.35;32.52;102037.97;5088351;27;45574;-83
2022/05/07 09:44:13;;;;;;;;;6.33;5.00;;;;;31.37;31.02;102051.63;5076373;27;46426;-88
2022/05/07 09:47:12;;;;;;;;;4.33;4.33;;;;;31.87;29.85;102051.44;5072604;27;45449;-86
2022/05/07 09:50:43;;;;;;;;;6.00;5.00;;;;;32.08;29.76;102083.13;5069626;27;45596;-87
2022/05/07 10:05:58;;;;;;;;;5.00;5.00;;;;;32.46;28.45;102044.69;5056408;27;46523;-92
2022/05/07 10:09:14;;;;;;;;;6.00;5.00;;;;;32.49;27.95;102067.25;4993706;28;45537;-94
2022/05/07 10:11:52;;;;;;;;;4.00;4.00;;;;;32.05;28.10;102066.91;4999024;28;45558;-89
2022/05/07 10:17:24;;;;;;;;;4.67;4.00;;;;;30.61;28.46;102015.88;5007550;28;45691;-90
2022/05/07 10:23:48;;;;;;;;;;;;;;;;;;;;;
2022/05/07 10:26:19;;;;;;;;;6.00;6.00;;;;;28.76;30.77;101943.72;5006638;28;61804;-94
2022/05/07 10:28:48;;;;;;;;;6.00;6.00;;;;;28.77;31.73;102011.31;4996153;28;47779;-93
2022/05/07 10:31:24;;;;;;;;;4.33;4.33;;;;;28.31;31.05;102004.94;5015912;28;45425;-95
2022/05/07 10:33:51;;;;;;;;;6.67;4.67;;;;;27.20;32.47;101871.56;5032789;28;45291;-94
2022/05/07 10:36:18;;;;;;;;;7.00;5.00;;;;;28.04;32.41;102078.94;5017474;28;45473;-95
2022/05/07 10:38:45;;;;;;;;;4.00;4.00;;;;;27.07;33.38;101982.19;5013709;28;46812;-94
2022/05/07 10:41:18;;;;;;;;;4.67;4.33;;;;;27.42;33.83;102081.16;5001497;28;45490;-93
2022/05/07 10:43:58;;;;;;;;;6.00;4.00;;;;;27.07;34.88;102075.25;5034240;28;45327;-86
2022/05/07 10:46:23;;;;;;;;;8.00;5.00;;;;;26.55;36.25;102046.34;5034224;28;46776;-92
2022/05/07 10:48:59;;;;;;;;;6.67;5.00;;;;;25.91;36.61;101990.97;5047088;28;45411;-88
2022/05/07 10:51:31;;;;;;;;;5.67;4.00;;;;;26.44;35.72;102075.50;5027230;28;45681;-89
2022/05/07 10:54:03;;;;;;;;;8.67;7.00;;;;;25.93;36.69;102023.63;5015863;28;45443;-91
2022/05/07 10:56:31;;;;;;;;;7.00;4.67;;;;;25.93;36.51;102056.41;5031121;28;45503;-88
2022/05/07 10:58:57;;;;;;;;;5.67;4.67;;;;;26.01;37.10;102076.59;5026718;28;46042;-88
2022/05/07 11:01:28;;;;;;;;;5.00;4.00;;;;;25.98;37.18;102070.53;5031431;28;45445;-88
2022/05/07 11:04:06;;;;;;;;;6.33;5.00;;;;;25.68;37.95;102069.44;5021722;28;45465;-86
2022/05/07 11:06:47;;;;;;;;;6.00;5.00;;;;;25.25;37.75;102041.25;5026139;28;45943;-88
2022/05/07 11:09:41;;;;;;;;;6.67;3.33;;;;;25.75;37.67;102064.31;5023037;28;46678;-85
2022/05/07 11:12:18;;;;;;;;;4.67;4.67;;;;;25.90;36.67;102019.31;5017709;28;45529;-84
2022/05/07 11:14:43;;;;;;;;;5.00;5.00;;;;;26.56;36.65;102064.50;5028182;28;45991;-84
2022/05/07 11:17:09;;;;;;;;;8.00;5.00;;;;;26.06;35.52;101945.91;5022651;28;45479;-84
2022/05/07 11:19:36;;;;;;;;;7.33;6.00;;;;;26.57;35.82;102050.66;5016566;28;45470;-84
2022/05/07 11:22:10;;;;;;;;;6.67;6.67;;;;;26.49;36.45;102043.13;5021417;28;45509;-83
2022/05/07 11:24:36;;;;;;;;;7.00;7.00;;;;;26.46;34.96;102029.75;5018697;28;45928;-84
2022/05/07 11:27:06;;;;;;;;;6.67;5.67;;;;;26.38;35.03;102031.44;5035719;28;45460;-90
2022/05/07 11:29:34;;;;;;;;;6.00;6.00;;;;;25.96;34.55;101961.38;5030794;28;47647;-86
2022/05/07 11:32:04;;;;;;;;;5.00;5.00;;;;;26.35;35.87;102029.84;5020381;28;45517;-89
2022/05/07 11:34:34;;;;;;;;;7.00;6.00;;;;;26.17;35.96;102037.81;5019174;28;45472;-87
2022/05/07 11:37:12;;;;;;;;;6.00;5.00;;;;;26.18;36.92;102044.19;5024728;28;45461;-88
2022/05/07 11:40:00;;;;;;;;;4.00;4.00;;;;;26.09;35.92;102026.72;5028411;28;48566;-84
2022/05/07 11:42:29;;;;;;;;;4.00;4.00;;;;;26.06;35.83;102024.28;5022869;28;45484;-85
2022/05/07 11:47:57;;;;;;;;;3.67;3.67;;;;;26.13;35.26;102028.19;5014973;28;46404;-94
2022/05/07 11:50:25;;;;;;;;;6.33;4.67;;;;;26.25;35.62;102023.50;5025110;28;47205;-86
2022/05/07 11:52:51;;;;;;;;;3.00;3.00;;;;;26.58;36.05;102038.72;5025397;28;45544;-84
2022/05/07 11:55:22;;;;;;;;;5.67;5.67;;;;;26.74;34.53;102030.00;5022024;28;45631;-85
2022/05/07 11:57:48;;;;;;;;;8.00;6.67;;;;;26.36;34.83;101985.09;5022729;28;45480;-88
2022/05/07 12:00:21;;;;;;;;;6.67;6.67;;;;;26.60;34.93;102039.47;5016922;28;48063;-89
2022/05/07 12:02:49;;;;;;;;;5.33;4.67;;;;;26.46;36.03;102035.22;5008556;28;46485;-87
2022/05/07 12:05:15;;;;;;;;;4.00;3.00;;;;;26.31;36.46;102045.66;5033721;28;45420;-88
2022/05/07 12:07:41;;;;;;;;;4.00;4.00;;;;;26.19;35.47;102040.44;5020900;28;45658;-87
2022/05/07 12:10:09;;;;;;;;;5.00;3.00;;;;;25.76;36.37;101979.53;5027379;28;45433;-91
2022/05/07 12:12:34;;;;;;;;;4.67;4.00;;;;;25.76;36.56;101992.31;5034768;28;45422;-88
2022/05/07 12:15:00;;;;;;;;;4.00;4.00;;;;;25.54;36.94;101960.56;5036594;28;45390;-92
2022/05/07 12:20:10;;;;;;;;;4.00;4.00;;;;;26.21;35.72;102016.56;5019652;28;45477;-82
2022/05/07 12:30:47;;;;;;;;;4.33;4.00;;;;;26.51;34.53;101971.91;5020036;28;45393;-90